EGLL/LHR METAR and TAF weather

Enter ICAO airport designator
Station Type Date Time Source
EGLL METAR 2018/04/21 20:50 UTC NOAA

EGLL 212050Z 19008KT 9999 -SHRA SCT046CB 18/13 Q1016


Station Type Date Time Source
EGLL Decoded METAR 2018/04/21 20:50 UTC NOAA

London / Heathrow Airport, United Kingdom (EGLL) 51-29N 000-27W 0M
Apr 21, 2018 - 04:50 PM EDT / 2018.04.21 2050 UTC
Wind: from the S (190 degrees) at 9 MPH (8 KT):0
Visibility: greater than 7 mile(s):0
Sky conditions: partly cloudy
Weather: light rain showers; Cumulonimbus clouds observed
Temperature: 64 F (18 C)
Dew Point: 55 F (13 C)
Relative Humidity: 72%
Pressure (altimeter): 30.00 in. Hg (1016 hPa)
ob: EGLL 212050Z 19008KT 9999 -SHRA SCT046CB 18/13 Q1016
cycle: 21

Station Type Date Time Source
EGLL TAF 2018/04/21 18:20 UTC NOAA

TAF EGLL 211701Z 2118/2224 15008KT 9999 FEW045
TEMPO 2118/2202 7000 SHRA PROB30
TEMPO 2119/2124 20015G25KT 4000 +SHRA TSGS
BECMG 2202/2205 21010KT PROB30 2202/2209 8000
BECMG 2214/2217 27010KT PROB30
TEMPO 2214/2218 7000 SHRA


Example: see airport list